sensor_id;sensor_type;location;lat;lon;timestamp;pressure;altitude;pressure_sealevel;temperature;humidity
28167;BME280;15455;53.376;-6.262;2024-01-07T00:02:44;102524.41;;;-0.50;100.00
28167;BME280;15455;53.376;-6.262;2024-01-07T00:05:29;102530.28;;;-0.51;100.00
28167;BME280;15455;53.376;-6.262;2024-01-07T00:08:18;102520.81;;;-0.52;100.00
28167;BME280;15455;53.376;-6.262;2024-01-07T00:11:04;102531.66;;;-0.56;100.00
28167;BME280;15455;53.376;-6.262;2024-01-07T00:13:50;102536.78;;;-0.56;100.00
28167;BME280;15455;53.376;-6.262;2024-01-07T00:16:35;102545.81;;;-0.61;100.00
28167;BME280;15455;53.376;-6.262;2024-01-07T00:19:21;102542.81;;;-0.67;100.00
28167;BME280;15455;53.376;-6.262;2024-01-07T00:22:07;102551.06;;;-0.72;100.00
28167;BME280;15455;53.376;-6.262;2024-01-07T00:24:53;102550.50;;;-0.79;100.00
28167;BME280;15455;53.376;-6.262;2024-01-07T00:27:38;102559.53;;;-0.84;100.00
28167;BME280;15455;53.376;-6.262;2024-01-07T00:30:24;102558.59;;;-0.97;100.00
28167;BME280;15455;53.376;-6.262;2024-01-07T00:33:11;102555.38;;;-1.18;100.00
28167;BME280;15455;53.376;-6.262;2024-01-07T00:35:56;102558.53;;;-1.44;100.00
28167;BME280;15455;53.376;-6.262;2024-01-07T00:38:42;102565.91;;;-1.59;100.00
28167;BME280;15455;53.376;-6.262;2024-01-07T00:41:30;102561.47;;;-1.62;100.00
28167;BME280;15455;53.376;-6.262;2024-01-07T00:44:16;102560.13;;;-1.68;100.00
28167;BME280;15455;53.376;-6.262;2024-01-07T00:47:01;102560.69;;;-1.61;100.00
28167;BME280;15455;53.376;-6.262;2024-01-07T00:49:47;102562.63;;;-1.46;100.00
28167;BME280;15455;53.376;-6.262;2024-01-07T00:52:33;102568.91;;;-1.31;100.00
28167;BME280;15455;53.376;-6.262;2024-01-07T00:55:19;102563.06;;;-1.18;100.00
28167;BME280;15455;53.376;-6.262;2024-01-07T00:58:08;102568.41;;;-1.15;100.00
28167;BME280;15455;53.376;-6.262;2024-01-07T01:00:56;102572.53;;;-1.17;100.00
28167;BME280;15455;53.376;-6.262;2024-01-07T01:03:41;102574.06;;;-1.19;100.00
28167;BME280;15455;53.376;-6.262;2024-01-07T01:06:27;102574.91;;;-1.30;100.00
28167;BME280;15455;53.376;-6.262;2024-01-07T01:09:13;102571.69;;;-1.40;100.00
28167;BME280;15455;53.376;-6.262;2024-01-07T01:11:58;102568.84;;;-1.54;100.00
28167;BME280;15455;53.376;-6.262;2024-01-07T01:14:44;102567.28;;;-1.52;100.00
28167;BME280;15455;53.376;-6.262;2024-01-07T01:17:30;102569.66;;;-1.44;100.00
28167;BME280;15455;53.376;-6.262;2024-01-07T01:20:15;102572.75;;;-1.48;100.00
28167;BME280;15455;53.376;-6.262;2024-01-07T01:23:01;102582.34;;;-1.45;100.00
28167;BME280;15455;53.376;-6.262;2024-01-07T01:25:48;102584.25;;;-1.43;100.00
28167;BME280;15455;53.376;-6.262;2024-01-07T01:28:35;102583.47;;;-1.42;100.00
28167;BME280;15455;53.376;-6.262;2024-01-07T01:31:20;102590.91;;;-1.45;100.00
28167;BME280;15455;53.376;-6.262;2024-01-07T01:34:06;102586.41;;;-1.37;100.00
28167;BME280;15455;53.376;-6.262;2024-01-07T01:36:52;102583.53;;;-1.30;100.00
28167;BME280;15455;53.376;-6.262;2024-01-07T01:39:41;102581.53;;;-1.22;100.00
28167;BME280;15455;53.376;-6.262;2024-01-07T01:42:27;102577.41;;;-1.20;100.00
28167;BME280;15455;53.376;-6.262;2024-01-07T01:45:12;102577.06;;;-1.13;100.00
28167;BME280;15455;53.376;-6.262;2024-01-07T01:47:58;102575.88;;;-1.06;100.00
28167;BME280;15455;53.376;-6.262;2024-01-07T01:50:43;102578.00;;;-1.00;100.00
28167;BME280;15455;53.376;-6.262;2024-01-07T01:53:30;102576.00;;;-1.05;100.00
28167;BME280;15455;53.376;-6.262;2024-01-07T01:56:17;102575.09;;;-1.05;100.00
28167;BME280;15455;53.376;-6.262;2024-01-07T01:59:04;102583.91;;;-1.01;100.00
28167;BME280;15455;53.376;-6.262;2024-01-07T02:01:50;102584.94;;;-0.99;100.00
28167;BME280;15455;53.376;-6.262;2024-01-07T02:04:36;102587.25;;;-1.02;100.00
28167;BME280;15455;53.376;-6.262;2024-01-07T02:07:21;102582.59;;;-0.96;100.00
28167;BME280;15455;53.376;-6.262;2024-01-07T02:10:07;102591.81;;;-0.98;100.00
28167;BME280;15455;53.376;-6.262;2024-01-07T02:12:53;102593.38;;;-1.00;100.00
28167;BME280;15455;53.376;-6.262;2024-01-07T02:15:38;102602.38;;;-1.06;100.00
28167;BME280;15455;53.376;-6.262;2024-01-07T02:18:24;102600.72;;;-1.17;100.00
28167;BME280;15455;53.376;-6.262;2024-01-07T02:21:10;102606.09;;;-1.36;100.00
28167;BME280;15455;53.376;-6.262;2024-01-07T02:23:58;102611.25;;;-1.58;100.00
28167;BME280;15455;53.376;-6.262;2024-01-07T02:26:45;102615.47;;;-1.81;100.00
28167;BME280;15455;53.376;-6.262;2024-01-07T02:29:30;102614.28;;;-1.96;100.00
28167;BME280;15455;53.376;-6.262;2024-01-07T02:32:16;102628.88;;;-2.05;100.00
28167;BME280;15455;53.376;-6.262;2024-01-07T02:35:01;102632.81;;;-2.21;100.00
28167;BME280;15455;53.376;-6.262;2024-01-07T02:37:47;102628.25;;;-2.35;100.00
28167;BME280;15455;53.376;-6.262;2024-01-07T02:40:33;102631.84;;;-2.43;100.00
28167;BME280;15455;53.376;-6.262;2024-01-07T02:43:18;102627.59;;;-2.43;100.00
28167;BME280;15455;53.376;-6.262;2024-01-07T02:46:04;102631.56;;;-2.36;100.00
28167;BME280;15455;53.376;-6.262;2024-01-07T02:48:50;102630.03;;;-2.45;100.00
28167;BME280;15455;53.376;-6.262;2024-01-07T02:51:35;102629.13;;;-2.35;100.00
28167;BME280;15455;53.376;-6.262;2024-01-07T02:54:21;102639.81;;;-2.18;100.00
28167;BME280;15455;53.376;-6.262;2024-01-07T02:57:06;102632.72;;;-2.00;100.00
28167;BME280;15455;53.376;-6.262;2024-01-07T02:59:53;102628.06;;;-1.94;100.00
28167;BME280;15455;53.376;-6.262;2024-01-07T03:02:38;102621.56;;;-1.90;100.00
28167;BME280;15455;53.376;-6.262;2024-01-07T03:05:24;102628.66;;;-1.86;100.00
28167;BME280;15455;53.376;-6.262;2024-01-07T03:08:10;102637.19;;;-1.76;100.00
28167;BME280;15455;53.376;-6.262;2024-01-07T03:10:55;102638.91;;;-1.86;100.00
28167;BME280;15455;53.376;-6.262;2024-01-07T03:13:41;102638.88;;;-2.08;100.00
28167;BME280;15455;53.376;-6.262;2024-01-07T03:16:26;102635.38;;;-2.31;100.00
28167;BME280;15455;53.376;-6.262;2024-01-07T03:19:12;102634.44;;;-2.54;100.00
28167;BME280;15455;53.376;-6.262;2024-01-07T03:21:57;102638.13;;;-2.60;100.00
28167;BME280;15455;53.376;-6.262;2024-01-07T03:24:43;102636.34;;;-2.62;100.00
28167;BME280;15455;53.376;-6.262;2024-01-07T03:27:29;102634.19;;;-2.57;100.00
28167;BME280;15455;53.376;-6.262;2024-01-07T03:30:15;102642.81;;;-2.45;100.00
28167;BME280;15455;53.376;-6.262;2024-01-07T03:33:01;102635.25;;;-2.33;100.00
28167;BME280;15455;53.376;-6.262;2024-01-07T03:35:46;102634.84;;;-2.27;100.00
28167;BME280;15455;53.376;-6.262;2024-01-07T03:38:32;102643.31;;;-2.28;100.00
28167;BME280;15455;53.376;-6.262;2024-01-07T03:41:18;102647.31;;;-2.42;100.00
28167;BME280;15455;53.376;-6.262;2024-01-07T03:44:04;102651.03;;;-2.59;100.00
28167;BME280;15455;53.376;-6.262;2024-01-07T03:46:50;102652.84;;;-2.68;100.00
28167;BME280;15455;53.376;-6.262;2024-01-07T03:49:37;102645.44;;;-2.75;100.00
28167;BME280;15455;53.376;-6.262;2024-01-07T03:52:23;102654.09;;;-2.63;100.00
28167;BME280;15455;53.376;-6.262;2024-01-07T03:55:09;102656.25;;;-2.47;100.00
28167;BME280;15455;53.376;-6.262;2024-01-07T03:57:54;102658.25;;;-2.33;100.00
28167;BME280;15455;53.376;-6.262;2024-01-07T04:00:40;102662.09;;;-2.28;100.00
28167;BME280;15455;53.376;-6.262;2024-01-07T04:03:25;102660.84;;;-2.43;100.00
28167;BME280;15455;53.376;-6.262;2024-01-07T04:06:11;102665.38;;;-2.61;100.00
28167;BME280;15455;53.376;-6.262;2024-01-07T04:08:57;102667.16;;;-2.81;100.00
28167;BME280;15455;53.376;-6.262;2024-01-07T04:11:43;102668.97;;;-3.00;100.00
28167;BME280;15455;53.376;-6.262;2024-01-07T04:14:28;102656.31;;;-3.09;100.00
28167;BME280;15455;53.376;-6.262;2024-01-07T04:17:14;102669.59;;;-2.92;100.00
28167;BME280;15455;53.376;-6.262;2024-01-07T04:20:00;102672.00;;;-2.73;100.00
28167;BME280;15455;53.376;-6.262;2024-01-07T04:22:45;102670.84;;;-2.56;100.00
28167;BME280;15455;53.376;-6.262;2024-01-07T04:25:31;102673.63;;;-2.43;100.00
28167;BME280;15455;53.376;-6.262;2024-01-07T04:28:16;102676.16;;;-2.33;100.00
28167;BME280;15455;53.376;-6.262;2024-01-07T04:31:02;102679.88;;;-2.29;100.00
28167;BME280;15455;53.376;-6.262;2024-01-07T04:33:48;102683.84;;;-2.22;100.00
28167;BME280;15455;53.376;-6.262;2024-01-07T04:36:33;102683.41;;;-2.17;100.00
28167;BME280;15455;53.376;-6.262;2024-01-07T04:39:19;102684.84;;;-2.20;100.00
28167;BME280;15455;53.376;-6.262;2024-01-07T04:42:04;102686.25;;;-2.24;100.00
28167;BME280;15455;53.376;-6.262;2024-01-07T04:44:50;102690.38;;;-2.36;100.00
28167;BME280;15455;53.376;-6.262;2024-01-07T04:47:36;102695.66;;;-2.55;100.00
28167;BME280;15455;53.376;-6.262;2024-01-07T04:50:22;102692.56;;;-2.62;100.00
28167;BME280;15455;53.376;-6.262;2024-01-07T04:53:08;102693.72;;;-2.58;100.00
28167;BME280;15455;53.376;-6.262;2024-01-07T04:55:54;102693.88;;;-2.67;100.00
28167;BME280;15455;53.376;-6.262;2024-01-07T04:58:40;102696.19;;;-2.80;100.00
28167;BME280;15455;53.376;-6.262;2024-01-07T05:01:25;102695.13;;;-2.92;100.00
28167;BME280;15455;53.376;-6.262;2024-01-07T05:04:11;102698.94;;;-2.98;100.00
28167;BME280;15455;53.376;-6.262;2024-01-07T05:06:58;102699.88;;;-2.87;100.00
28167;BME280;15455;53.376;-6.262;2024-01-07T05:09:43;102701.16;;;-2.71;100.00
28167;BME280;15455;53.376;-6.262;2024-01-07T05:12:29;102700.75;;;-2.45;100.00
28167;BME280;15455;53.376;-6.262;2024-01-07T05:15:14;102706.47;;;-2.27;100.00
28167;BME280;15455;53.376;-6.262;2024-01-07T05:18:00;102706.44;;;-2.17;100.00
28167;BME280;15455;53.376;-6.262;2024-01-07T05:20:46;102709.63;;;-2.09;100.00
28167;BME280;15455;53.376;-6.262;2024-01-07T05:23:31;102706.44;;;-2.06;100.00
28167;BME280;15455;53.376;-6.262;2024-01-07T05:26:17;102712.53;;;-2.04;100.00
28167;BME280;15455;53.376;-6.262;2024-01-07T05:29:02;102706.66;;;-2.03;100.00
28167;BME280;15455;53.376;-6.262;2024-01-07T05:31:48;102714.88;;;-2.07;100.00
28167;BME280;15455;53.376;-6.262;2024-01-07T05:34:34;102724.84;;;-2.11;100.00
28167;BME280;15455;53.376;-6.262;2024-01-07T05:37:20;102721.13;;;-2.14;100.00
28167;BME280;15455;53.376;-6.262;2024-01-07T05:40:06;102726.53;;;-2.21;100.00
28167;BME280;15455;53.376;-6.262;2024-01-07T05:42:52;102726.03;;;-2.28;100.00
28167;BME280;15455;53.376;-6.262;2024-01-07T05:45:38;102730.91;;;-2.31;100.00
28167;BME280;15455;53.376;-6.262;2024-01-07T05:48:23;102732.16;;;-2.36;100.00
28167;BME280;15455;53.376;-6.262;2024-01-07T05:51:09;102735.25;;;-2.40;100.00
28167;BME280;15455;53.376;-6.262;2024-01-07T05:53:54;102746.38;;;-2.39;100.00
28167;BME280;15455;53.376;-6.262;2024-01-07T05:56:40;102744.59;;;-2.40;100.00
28167;BME280;15455;53.376;-6.262;2024-01-07T05:59:26;102741.53;;;-2.47;100.00
28167;BME280;15455;53.376;-6.262;2024-01-07T06:02:11;102745.34;;;-2.52;100.00
28167;BME280;15455;53.376;-6.262;2024-01-07T06:04:57;102739.75;;;-2.58;100.00
28167;BME280;15455;53.376;-6.262;2024-01-07T06:07:43;102748.81;;;-2.62;100.00
28167;BME280;15455;53.376;-6.262;2024-01-07T06:10:28;102756.09;;;-2.66;100.00
28167;BME280;15455;53.376;-6.262;2024-01-07T06:13:14;102758.66;;;-2.66;100.00
28167;BME280;15455;53.376;-6.262;2024-01-07T06:15:59;102770.66;;;-2.65;100.00
28167;BME280;15455;53.376;-6.262;2024-01-07T06:18:45;102762.25;;;-2.64;100.00
28167;BME280;15455;53.376;-6.262;2024-01-07T06:21:31;102762.38;;;-2.63;100.00
28167;BME280;15455;53.376;-6.262;2024-01-07T06:24:16;102770.16;;;-2.61;100.00
28167;BME280;15455;53.376;-6.262;2024-01-07T06:27:02;102770.16;;;-2.61;100.00
28167;BME280;15455;53.376;-6.262;2024-01-07T06:29:49;102764.00;;;-2.63;100.00
28167;BME280;15455;53.376;-6.262;2024-01-07T06:32:34;102763.00;;;-2.65;100.00
28167;BME280;15455;53.376;-6.262;2024-01-07T06:35:20;102774.91;;;-2.66;100.00
28167;BME280;15455;53.376;-6.262;2024-01-07T06:38:06;102778.09;;;-2.68;100.00
28167;BME280;15455;53.376;-6.262;2024-01-07T06:40:51;102776.03;;;-2.72;100.00
28167;BME280;15455;53.376;-6.262;2024-01-07T06:43:43;102783.44;;;-2.75;100.00
28167;BME280;15455;53.376;-6.262;2024-01-07T06:46:28;102783.31;;;-2.77;100.00
28167;BME280;15455;53.376;-6.262;2024-01-07T06:49:14;102784.81;;;-2.79;100.00
28167;BME280;15455;53.376;-6.262;2024-01-07T06:52:00;102789.81;;;-2.81;100.00
28167;BME280;15455;53.376;-6.262;2024-01-07T06:54:45;102793.16;;;-2.82;100.00
28167;BME280;15455;53.376;-6.262;2024-01-07T06:57:30;102793.91;;;-2.83;100.00
28167;BME280;15455;53.376;-6.262;2024-01-07T07:00:17;102800.41;;;-2.86;100.00
28167;BME280;15455;53.376;-6.262;2024-01-07T07:03:03;102806.56;;;-2.84;100.00
28167;BME280;15455;53.376;-6.262;2024-01-07T07:05:49;102817.53;;;-2.85;100.00
28167;BME280;15455;53.376;-6.262;2024-01-07T07:08:35;102813.19;;;-2.86;100.00
28167;BME280;15455;53.376;-6.262;2024-01-07T07:11:20;102819.97;;;-2.87;100.00
28167;BME280;15455;53.376;-6.262;2024-01-07T07:14:06;102822.63;;;-2.85;100.00
28167;BME280;15455;53.376;-6.262;2024-01-07T07:16:52;102831.06;;;-2.86;100.00
28167;BME280;15455;53.376;-6.262;2024-01-07T07:19:37;102833.50;;;-2.88;100.00
28167;BME280;15455;53.376;-6.262;2024-01-07T07:22:28;102838.59;;;-2.88;100.00
28167;BME280;15455;53.376;-6.262;2024-01-07T07:25:13;102838.59;;;-2.88;100.00
28167;BME280;15455;53.376;-6.262;2024-01-07T07:27:59;102841.16;;;-2.88;100.00
28167;BME280;15455;53.376;-6.262;2024-01-07T07:30:45;102851.38;;;-2.88;100.00
28167;BME280;15455;53.376;-6.262;2024-01-07T07:33:35;102853.19;;;-2.87;100.00
28167;BME280;15455;53.376;-6.262;2024-01-07T07:36:20;102849.59;;;-2.89;100.00
28167;BME280;15455;53.376;-6.262;2024-01-07T07:39:06;102853.94;;;-2.88;100.00
28167;BME280;15455;53.376;-6.262;2024-01-07T07:41:51;102856.34;;;-2.89;100.00
28167;BME280;15455;53.376;-6.262;2024-01-07T07:44:37;102858.91;;;-2.89;100.00
28167;BME280;15455;53.376;-6.262;2024-01-07T07:47:24;102858.03;;;-2.90;100.00
28167;BME280;15455;53.376;-6.262;2024-01-07T07:50:10;102860.56;;;-2.90;100.00
28167;BME280;15455;53.376;-6.262;2024-01-07T07:52:56;102870.03;;;-2.89;100.00
28167;BME280;15455;53.376;-6.262;2024-01-07T07:55:42;102870.94;;;-2.88;100.00
28167;BME280;15455;53.376;-6.262;2024-01-07T07:58:28;102869.25;;;-2.88;100.00
28167;BME280;15455;53.376;-6.262;2024-01-07T08:01:13;102870.94;;;-2.88;100.00
28167;BME280;15455;53.376;-6.262;2024-01-07T08:03:59;102872.72;;;-2.87;100.00
28167;BME280;15455;53.376;-6.262;2024-01-07T08:06:44;102877.06;;;-2.86;100.00
28167;BME280;15455;53.376;-6.262;2024-01-07T08:09:31;102879.59;;;-2.86;100.00
28167;BME280;15455;53.376;-6.262;2024-01-07T08:12:16;102877.19;;;-2.85;100.00
28167;BME280;15455;53.376;-6.262;2024-01-07T08:15:02;102878.84;;;-2.85;100.00
28167;BME280;15455;53.376;-6.262;2024-01-07T08:17:48;102893.44;;;-2.84;100.00
28167;BME280;15455;53.376;-6.262;2024-01-07T08:20:33;102884.97;;;-2.83;100.00
28167;BME280;15455;53.376;-6.262;2024-01-07T08:23:19;102884.84;;;-2.85;100.00
28167;BME280;15455;53.376;-6.262;2024-01-07T08:26:05;102892.50;;;-2.85;100.00
28167;BME280;15455;53.376;-6.262;2024-01-07T08:28:50;102897.63;;;-2.85;100.00
28167;BME280;15455;53.376;-6.262;2024-01-07T08:31:36;102903.66;;;-2.84;100.00
28167;BME280;15455;53.376;-6.262;2024-01-07T08:34:21;102910.53;;;-2.83;100.00
28167;BME280;15455;53.376;-6.262;2024-01-07T08:37:08;102905.72;;;-2.80;100.00
28167;BME280;15455;53.376;-6.262;2024-01-07T08:39:55;102903.28;;;-2.78;100.00
28167;BME280;15455;53.376;-6.262;2024-01-07T08:42:40;102902.50;;;-2.77;100.00
28167;BME280;15455;53.376;-6.262;2024-01-07T08:45:26;102909.41;;;-2.76;100.00
28167;BME280;15455;53.376;-6.262;2024-01-07T08:48:12;102913.78;;;-2.75;100.00
28167;BME280;15455;53.376;-6.262;2024-01-07T08:50:58;102919.91;;;-2.73;100.00
28167;BME280;15455;53.376;-6.262;2024-01-07T08:53:43;102921.69;;;-2.72;100.00
28167;BME280;15455;53.376;-6.262;2024-01-07T08:56:29;102922.72;;;-2.70;100.00
28167;BME280;15455;53.376;-6.262;2024-01-07T08:59:16;102926.19;;;-2.70;100.00
28167;BME280;15455;53.376;-6.262;2024-01-07T09:02:02;102932.31;;;-2.68;100.00
28167;BME280;15455;53.376;-6.262;2024-01-07T09:04:48;102934.13;;;-2.67;100.00
28167;BME280;15455;53.376;-6.262;2024-01-07T09:07:33;102931.81;;;-2.64;100.00
28167;BME280;15455;53.376;-6.262;2024-01-07T09:10:19;102932.84;;;-2.62;100.00
28167;BME280;15455;53.376;-6.262;2024-01-07T09:13:06;102932.22;;;-2.59;100.00
28167;BME280;15455;53.376;-6.262;2024-01-07T09:15:52;102935.03;;;-2.56;100.00
28167;BME280;15455;53.376;-6.262;2024-01-07T09:18:38;102939.53;;;-2.53;100.00
28167;BME280;15455;53.376;-6.262;2024-01-07T09:21:23;102939.03;;;-2.49;100.00
28167;BME280;15455;53.376;-6.262;2024-01-07T09:24:09;102938.41;;;-2.47;100.00
28167;BME280;15455;53.376;-6.262;2024-01-07T09:26:55;102943.91;;;-2.42;100.00
28167;BME280;15455;53.376;-6.262;2024-01-07T09:29:42;102936.50;;;-2.39;100.00
28167;BME280;15455;53.376;-6.262;2024-01-07T09:32:27;102946.22;;;-2.35;100.00
28167;BME280;15455;53.376;-6.262;2024-01-07T09:35:13;102948.03;;;-2.34;100.00
28167;BME280;15455;53.376;-6.262;2024-01-07T09:37:59;102953.38;;;-2.31;100.00
28167;BME280;15455;53.376;-6.262;2024-01-07T09:40:45;102950.97;;;-2.29;100.00
28167;BME280;15455;53.376;-6.262;2024-01-07T09:43:31;102954.53;;;-2.27;100.00
28167;BME280;15455;53.376;-6.262;2024-01-07T09:46:21;102958.25;;;-2.23;100.00
28167;BME280;15455;53.376;-6.262;2024-01-07T09:49:07;102957.75;;;-2.19;100.00
28167;BME280;15455;53.376;-6.262;2024-01-07T09:52:00;102960.47;;;-2.18;100.00
28167;BME280;15455;53.376;-6.262;2024-01-07T09:54:55;102956.09;;;-2.19;100.00
28167;BME280;15455;53.376;-6.262;2024-01-07T09:57:44;102959.53;;;-2.18;100.00
28167;BME280;15455;53.376;-6.262;2024-01-07T10:00:31;102953.91;;;-2.14;100.00
28167;BME280;15455;53.376;-6.262;2024-01-07T10:03:17;102964.41;;;-2.11;100.00
28167;BME280;15455;53.376;-6.262;2024-01-07T10:06:03;102958.16;;;-2.15;100.00
28167;BME280;15455;53.376;-6.262;2024-01-07T10:08:49;102965.81;;;-2.15;100.00
28167;BME280;15455;53.376;-6.262;2024-01-07T10:11:35;102969.53;;;-2.11;100.00
28167;BME280;15455;53.376;-6.262;2024-01-07T10:14:21;102969.66;;;-2.10;100.00
28167;BME280;15455;53.376;-6.262;2024-01-07T10:17:16;102979.50;;;-2.04;100.00
28167;BME280;15455;53.376;-6.262;2024-01-07T10:20:04;102979.00;;;-2.00;100.00
28167;BME280;15455;53.376;-6.262;2024-01-07T10:22:50;102983.63;;;-1.96;100.00
28167;BME280;15455;53.376;-6.262;2024-01-07T10:25:36;102990.69;;;-1.93;100.00
28167;BME280;15455;53.376;-6.262;2024-01-07T10:28:23;102990.94;;;-1.90;100.00
28167;BME280;15455;53.376;-6.262;2024-01-07T10:31:09;102991.06;;;-1.88;100.00
28167;BME280;15455;53.376;-6.262;2024-01-07T10:33:56;102990.94;;;-1.90;100.00
28167;BME280;15455;53.376;-6.262;2024-01-07T10:36:43;102995.41;;;-1.87;100.00
28167;BME280;15455;53.376;-6.262;2024-01-07T10:39:30;102999.91;;;-1.85;100.00
28167;BME280;15455;53.376;-6.262;2024-01-07T10:42:18;102991.69;;;-1.81;100.00
28167;BME280;15455;53.376;-6.262;2024-01-07T10:45:04;103006.28;;;-1.80;100.00
28167;BME280;15455;53.376;-6.262;2024-01-07T10:47:54;103011.41;;;-1.80;100.00
28167;BME280;15455;53.376;-6.262;2024-01-07T10:50:40;103007.97;;;-1.80;100.00
28167;BME280;15455;53.376;-6.262;2024-01-07T10:53:33;103010.41;;;-1.82;100.00
28167;BME280;15455;53.376;-6.262;2024-01-07T10:56:23;103010.28;;;-1.83;100.00
28167;BME280;15455;53.376;-6.262;2024-01-07T10:59:09;103019.47;;;-1.85;100.00
28167;BME280;15455;53.376;-6.262;2024-01-07T11:01:55;103020.22;;;-1.86;100.00
28167;BME280;15455;53.376;-6.262;2024-01-07T11:05:03;103022.94;;;-1.85;100.00
28167;BME280;15455;53.376;-6.262;2024-01-07T11:08:01;103023.81;;;-1.84;100.00
28167;BME280;15455;53.376;-6.262;2024-01-07T11:10:53;103025.63;;;-1.83;100.00
28167;BME280;15455;53.376;-6.262;2024-01-07T11:13:39;103021.78;;;-1.78;100.00
28167;BME280;15455;53.376;-6.262;2024-01-07T11:16:44;103015.41;;;-1.73;100.00
28167;BME280;15455;53.376;-6.262;2024-01-07T11:19:29;103019.59;;;-1.73;100.00
28167;BME280;15455;53.376;-6.262;2024-01-07T11:22:26;103022.69;;;-1.67;100.00
28167;BME280;15455;53.376;-6.262;2024-01-07T11:25:31;103011.78;;;-1.65;100.00
28167;BME280;15455;53.376;-6.262;2024-01-07T11:28:17;103020.66;;;-1.61;100.00
28167;BME280;15455;53.376;-6.262;2024-01-07T11:31:03;103013.22;;;-1.58;100.00
28167;BME280;15455;53.376;-6.262;2024-01-07T11:33:50;103017.72;;;-1.55;100.00
28167;BME280;15455;53.376;-6.262;2024-01-07T11:36:37;103019.63;;;-1.53;100.00
28167;BME280;15455;53.376;-6.262;2024-01-07T11:39:23;103018.09;;;-1.51;100.00
28167;BME280;15455;53.376;-6.262;2024-01-07T11:42:08;103007.31;;;-1.47;100.00
28167;BME280;15455;53.376;-6.262;2024-01-07T11:44:54;103011.16;;;-1.42;100.00
28167;BME280;15455;53.376;-6.262;2024-01-07T11:47:41;103012.19;;;-1.40;100.00
28167;BME280;15455;53.376;-6.262;2024-01-07T11:50:27;103017.69;;;-1.35;100.00
28167;BME280;15455;53.376;-6.262;2024-01-07T11:53:13;103018.97;;;-1.30;100.00
28167;BME280;15455;53.376;-6.262;2024-01-07T11:55:59;103023.16;;;-1.20;100.00
28167;BME280;15455;53.376;-6.262;2024-01-07T11:58:45;103021.63;;;-1.08;100.00
28167;BME280;15455;53.376;-6.262;2024-01-07T12:01:31;103019.81;;;-0.98;100.00
28167;BME280;15455;53.376;-6.262;2024-01-07T12:04:16;103019.16;;;-0.96;100.00
28167;BME280;15455;53.376;-6.262;2024-01-07T12:07:04;103023.66;;;-0.93;100.00
28167;BME280;15455;53.376;-6.262;2024-01-07T12:09:57;103023.25;;;-0.88;100.00
28167;BME280;15455;53.376;-6.262;2024-01-07T12:12:43;103028.75;;;-0.83;100.00
28167;BME280;15455;53.376;-6.262;2024-01-07T12:15:29;103025.41;;;-0.82;100.00
28167;BME280;15455;53.376;-6.262;2024-01-07T12:18:15;103024.66;;;-0.81;100.00
28167;BME280;15455;53.376;-6.262;2024-01-07T12:21:00;103017.44;;;-0.75;100.00
28167;BME280;15455;53.376;-6.262;2024-01-07T12:23:48;103016.53;;;-0.65;100.00
28167;BME280;15455;53.376;-6.262;2024-01-07T12:26:36;103022.78;;;-0.61;100.00
28167;BME280;15455;53.376;-6.262;2024-01-07T12:29:23;103026.38;;;-0.59;100.00
28167;BME280;15455;53.376;-6.262;2024-01-07T12:32:10;103020.56;;;-0.57;100.00
28167;BME280;15455;53.376;-6.262;2024-01-07T12:35:02;103023.13;;;-0.57;100.00
28167;BME280;15455;53.376;-6.262;2024-01-07T12:37:48;103020.69;;;-0.55;100.00
28167;BME280;15455;53.376;-6.262;2024-01-07T12:40:34;103024.06;;;-0.56;100.00
28167;BME280;15455;53.376;-6.262;2024-01-07T12:43:20;103018.00;;;-0.57;100.00
28167;BME280;15455;53.376;-6.262;2024-01-07T12:46:06;103013.13;;;-0.54;100.00
28167;BME280;15455;53.376;-6.262;2024-01-07T12:48:52;103000.69;;;-0.49;100.00
28167;BME280;15455;53.376;-6.262;2024-01-07T12:51:38;103005.53;;;-0.42;100.00
28167;BME280;15455;53.376;-6.262;2024-01-07T12:54:24;103008.16;;;-0.30;100.00
28167;BME280;15455;53.376;-6.262;2024-01-07T12:57:10;103004.66;;;-0.20;100.00
28167;BME280;15455;53.376;-6.262;2024-01-07T12:59:55;103008.03;;;-0.09;100.00
28167;BME280;15455;53.376;-6.262;2024-01-07T13:02:41;103011.78;;;0.06;100.00
28167;BME280;15455;53.376;-6.262;2024-01-07T13:05:27;103015.78;;;0.25;100.00
28167;BME280;15455;53.376;-6.262;2024-01-07T13:08:14;103006.84;;;0.31;100.00
28167;BME280;15455;53.376;-6.262;2024-01-07T13:11:00;103015.94;;;0.38;100.00
28167;BME280;15455;53.376;-6.262;2024-01-07T13:13:46;103007.69;;;0.42;100.00
28167;BME280;15455;53.376;-6.262;2024-01-07T13:16:32;103006.69;;;0.52;100.00
28167;BME280;15455;53.376;-6.262;2024-01-07T13:19:18;103014.44;;;0.64;100.00
28167;BME280;15455;53.376;-6.262;2024-01-07T13:22:04;102999.91;;;0.76;100.00
28167;BME280;15455;53.376;-6.262;2024-01-07T13:24:49;102995.00;;;0.91;100.00
28167;BME280;15455;53.376;-6.262;2024-01-07T13:27:35;102999.38;;;1.04;100.00
28167;BME280;15455;53.376;-6.262;2024-01-07T13:30:22;102993.19;;;1.14;100.00
28167;BME280;15455;53.376;-6.262;2024-01-07T13:33:08;102990.41;;;1.23;100.00
28167;BME280;15455;53.376;-6.262;2024-01-07T13:35:54;102990.88;;;1.29;100.00
28167;BME280;15455;53.376;-6.262;2024-01-07T13:38:40;102988.50;;;1.32;100.00
28167;BME280;15455;53.376;-6.262;2024-01-07T13:41:30;102993.97;;;1.36;100.00
28167;BME280;15455;53.376;-6.262;2024-01-07T13:44:17;102985.47;;;1.37;100.00
28167;BME280;15455;53.376;-6.262;2024-01-07T13:47:03;102990.94;;;1.42;100.00
28167;BME280;15455;53.376;-6.262;2024-01-07T13:49:50;102995.75;;;1.49;100.00
28167;BME280;15455;53.376;-6.262;2024-01-07T13:52:36;102988.56;;;1.57;100.00
28167;BME280;15455;53.376;-6.262;2024-01-07T13:55:22;102994.72;;;1.59;100.00
28167;BME280;15455;53.376;-6.262;2024-01-07T13:58:08;102996.94;;;1.54;100.00
28167;BME280;15455;53.376;-6.262;2024-01-07T14:00:54;102994.06;;;1.50;100.00
28167;BME280;15455;53.376;-6.262;2024-01-07T14:03:40;102994.97;;;1.38;100.00
28167;BME280;15455;53.376;-6.262;2024-01-07T14:06:25;102981.91;;;1.24;100.00
28167;BME280;15455;53.376;-6.262;2024-01-07T14:09:11;102984.38;;;1.10;100.00